createdAt,value
2023-02-16T00:02:01.625Z,102223.03
2023-02-16T00:04:31.985Z,102231.13
2023-02-16T00:07:00.179Z,102226.81
2023-02-16T00:09:28.143Z,102226.19
2023-02-16T00:12:13.396Z,102229.78
2023-02-16T00:14:41.520Z,102228.88
2023-02-16T00:17:12.880Z,102222.69
2023-02-16T00:19:43.226Z,102226.88
2023-02-16T00:22:11.678Z,102228.75
2023-02-16T00:24:39.771Z,102213.75
2023-02-16T00:27:14.090Z,102230.72
2023-02-16T00:29:44.695Z,102221.00
2023-02-16T00:32:15.875Z,102211.81
2023-02-16T00:34:44.311Z,102210.13
2023-02-16T00:37:13.769Z,102211.66
2023-02-16T00:39:43.544Z,102209.91
2023-02-16T00:42:15.541Z,102212.78
2023-02-16T00:44:45.082Z,102215.47
2023-02-16T00:47:19.961Z,102217.59
2023-02-16T00:49:48.403Z,102208.69
2023-02-16T00:52:29.349Z,102214.34
2023-02-16T00:54:57.331Z,102204.66
2023-02-16T00:57:25.882Z,102207.13
2023-02-16T00:59:59.600Z,102206.06
2023-02-16T01:02:29.306Z,102200.69
2023-02-16T01:04:57.182Z,102199.00
2023-02-16T01:07:42.294Z,102199.19
2023-02-16T01:10:29.224Z,102193.72
2023-02-16T01:12:57.317Z,102193.06
2023-02-16T01:15:26.425Z,102193.75
2023-02-16T01:17:55.760Z,102194.44
2023-02-16T01:20:25.302Z,102188.50
2023-02-16T01:22:53.380Z,102193.94
2023-02-16T01:25:21.496Z,102201.91
2023-02-16T01:27:50.442Z,102191.44
2023-02-16T01:30:20.281Z,102188.97
2023-02-16T01:32:51.742Z,102195.38
2023-02-16T01:35:22.253Z,102193.50
2023-02-16T01:37:50.386Z,102192.53
2023-02-16T01:40:27.861Z,102189.66
2023-02-16T01:42:58.704Z,102189.88
2023-02-16T01:45:33.753Z,102191.81
2023-02-16T01:48:04.820Z,102190.13
2023-02-16T01:50:43.471Z,102190.06
2023-02-16T01:53:20.456Z,102189.94
2023-02-16T01:55:49.628Z,102198.81
2023-02-16T01:58:22.215Z,102196.22
2023-02-16T02:01:45.440Z,102202.47
2023-02-16T02:04:40.667Z,102190.72
2023-02-16T02:07:15.599Z,102187.34
2023-02-16T02:09:48.261Z,102182.09
2023-02-16T02:12:22.247Z,102189.31
2023-02-16T02:14:50.238Z,102202.72
2023-02-16T02:17:20.019Z,102192.81
2023-02-16T02:19:56.477Z,102189.88
2023-02-16T02:23:12.265Z,102189.34
2023-02-16T02:26:06.132Z,102188.47
2023-02-16T02:28:40.011Z,102188.44
2023-02-16T02:31:09.589Z,102182.28
2023-02-16T02:33:45.958Z,102192.22
2023-02-16T02:36:24.740Z,102185.09
2023-02-16T02:39:01.375Z,102188.72
2023-02-16T02:41:48.236Z,102184.38
2023-02-16T02:44:19.969Z,102182.69
2023-02-16T02:46:48.352Z,102180.00
2023-02-16T02:49:16.798Z,102179.97
2023-02-16T02:51:44.724Z,102173.84
2023-02-16T02:54:32.643Z,102166.44
2023-02-16T02:57:37.976Z,102171.94
2023-02-16T03:00:27.356Z,102168.38
2023-02-16T03:02:57.835Z,102169.47
2023-02-16T03:05:28.900Z,102173.75
2023-02-16T03:08:06.481Z,102163.16
2023-02-16T03:10:54.081Z,102170.38
2023-02-16T03:13:26.291Z,102158.88
2023-02-16T03:15:57.877Z,102162.53
2023-02-16T03:18:45.098Z,102158.75
2023-02-16T03:21:31.472Z,102164.31
2023-02-16T03:24:19.551Z,102161.75
2023-02-16T03:27:08.972Z,102147.53
2023-02-16T03:29:38.165Z,102157.94
2023-02-16T03:32:07.776Z,102158.75
2023-02-16T03:34:37.703Z,102157.94
2023-02-16T03:37:06.858Z,102158.16
2023-02-16T03:39:55.719Z,102150.13
2023-02-16T03:42:24.050Z,102148.03
2023-02-16T03:44:53.501Z,102142.88
2023-02-16T03:47:22.900Z,102131.31
2023-02-16T03:49:50.804Z,102127.78
2023-02-16T03:52:18.728Z,102129.69
2023-02-16T03:54:46.624Z,102123.56
2023-02-16T03:57:14.548Z,102126.28
2023-02-16T03:59:42.475Z,102126.41
2023-02-16T04:02:10.411Z,102123.91
2023-02-16T04:04:39.900Z,102124.63
2023-02-16T04:07:07.838Z,102128.19
2023-02-16T04:09:35.734Z,102121.06
2023-02-16T04:12:20.827Z,102125.59
2023-02-16T04:14:49.172Z,102122.09
2023-02-16T04:17:17.070Z,102128.47
2023-02-16T04:19:46.333Z,102117.59
2023-02-16T04:22:14.267Z,102119.34
2023-02-16T04:24:42.197Z,102124.63
2023-02-16T04:27:11.348Z,102124.72
2023-02-16T04:29:39.265Z,102123.84
2023-02-16T04:32:07.359Z,102126.47
2023-02-16T04:34:35.360Z,102131.81
2023-02-16T04:37:05.791Z,102132.75
2023-02-16T04:39:33.827Z,102132.53
2023-02-16T04:42:01.760Z,102120.84
2023-02-16T04:44:29.759Z,102124.22
2023-02-16T04:46:57.711Z,102125.22
2023-02-16T04:49:25.671Z,102121.47
2023-02-16T04:51:53.694Z,102119.50
2023-02-16T04:54:23.042Z,102116.19
2023-02-16T04:56:50.957Z,102121.56
2023-02-16T04:59:18.898Z,102120.44
2023-02-16T05:01:46.831Z,102117.97
2023-02-16T05:04:14.796Z,102118.06
2023-02-16T05:06:42.771Z,102122.47
2023-02-16T05:09:11.002Z,102130.28
2023-02-16T05:11:57.980Z,102122.47
2023-02-16T05:14:45.000Z,102126.09
2023-02-16T05:17:14.889Z,102129.47
2023-02-16T05:19:43.114Z,102131.31
2023-02-16T05:22:11.532Z,102127.03
2023-02-16T05:24:39.625Z,102129.28
2023-02-16T05:27:10.691Z,102132.97
2023-02-16T05:29:38.611Z,102133.13
2023-02-16T05:32:06.831Z,102123.44
2023-02-16T05:34:34.841Z,102124.44
2023-02-16T05:37:02.757Z,102123.50
2023-02-16T05:39:30.728Z,102116.56
2023-02-16T05:41:58.658Z,102109.44
2023-02-16T05:44:27.986Z,102122.94
2023-02-16T05:46:56.774Z,102107.72
2023-02-16T05:49:24.660Z,102107.44
2023-02-16T05:51:52.652Z,102109.25
2023-02-16T05:54:20.573Z,102104.00
2023-02-16T05:56:50.582Z,102101.09
2023-02-16T05:59:19.089Z,102111.84
2023-02-16T06:01:51.610Z,102098.47
2023-02-16T06:04:21.083Z,102101.84
2023-02-16T06:06:49.336Z,102101.13
2023-02-16T06:09:17.517Z,102103.53
2023-02-16T06:11:45.551Z,102103.66
2023-02-16T06:14:15.828Z,102099.94
2023-02-16T06:16:45.397Z,102092.97
2023-02-16T06:19:15.388Z,102099.75
2023-02-16T06:21:43.438Z,102100.72
2023-02-16T06:24:13.226Z,102104.22
2023-02-16T06:26:41.511Z,102130.91
2023-02-16T06:29:09.978Z,102130.06
2023-02-16T06:31:38.046Z,102123.88
2023-02-16T06:34:06.736Z,102129.91
2023-02-16T06:36:36.293Z,102121.66
2023-02-16T06:39:04.623Z,102117.22
2023-02-16T06:41:35.547Z,102108.28
2023-02-16T06:44:05.523Z,102114.28
2023-02-16T06:46:33.925Z,102103.63
2023-02-16T06:49:02.218Z,102091.97
2023-02-16T06:51:30.149Z,102090.72
2023-02-16T06:53:59.488Z,102083.53
2023-02-16T06:56:27.984Z,102087.72
2023-02-16T06:58:55.969Z,102088.41
2023-02-16T07:01:25.991Z,102090.16
2023-02-16T07:03:55.362Z,102096.94
2023-02-16T07:06:24.275Z,102099.69
2023-02-16T07:08:52.615Z,102095.16
2023-02-16T07:11:22.249Z,102095.56
2023-02-16T07:13:50.175Z,102093.41
2023-02-16T07:16:18.315Z,102110.13
2023-02-16T07:18:46.624Z,102109.06
2023-02-16T07:21:15.100Z,102105.44
2023-02-16T07:23:43.350Z,102091.91
2023-02-16T07:26:11.373Z,102096.78
2023-02-16T07:28:40.748Z,102099.88
2023-02-16T07:31:10.029Z,102095.09
2023-02-16T07:33:38.082Z,102099.34
2023-02-16T07:36:07.108Z,102104.16
2023-02-16T07:38:35.034Z,102096.22
2023-02-16T07:41:04.791Z,102098.09
2023-02-16T07:43:34.696Z,102105.53
2023-02-16T07:46:04.230Z,102097.88
2023-02-16T07:48:32.843Z,102103.53
2023-02-16T07:51:00.851Z,102101.47
2023-02-16T07:53:28.969Z,102105.50
2023-02-16T07:55:57.127Z,102092.09
2023-02-16T07:58:31.289Z,102091.06
2023-02-16T08:01:09.513Z,102083.13
2023-02-16T08:03:37.450Z,102080.56
2023-02-16T08:06:06.241Z,102073.00
2023-02-16T08:08:34.396Z,102075.63
2023-02-16T08:11:09.547Z,102080.13
2023-02-16T08:13:37.503Z,102074.75
2023-02-16T08:16:10.546Z,102083.09
2023-02-16T08:18:38.530Z,102080.22
2023-02-16T08:21:14.409Z,102080.09
2023-02-16T08:23:43.611Z,102078.06
2023-02-16T08:26:12.321Z,102077.78
2023-02-16T08:28:46.150Z,102072.56
2023-02-16T08:31:16.973Z,102077.13
2023-02-16T08:33:45.144Z,102066.47
2023-02-16T08:36:19.006Z,102070.94
2023-02-16T08:38:50.156Z,102062.72
2023-02-16T08:41:18.658Z,102063.06
2023-02-16T08:43:46.912Z,102055.75
2023-02-16T08:46:16.753Z,102063.34
2023-02-16T08:48:45.312Z,102068.72
2023-02-16T08:51:15.544Z,102075.72
2023-02-16T08:53:43.478Z,102069.00
2023-02-16T08:56:12.238Z,102066.75
2023-02-16T08:58:40.250Z,102053.84
2023-02-16T09:01:08.915Z,102056.25
2023-02-16T09:03:38.530Z,102057.63
2023-02-16T09:06:07.393Z,102053.13
2023-02-16T09:08:37.568Z,102051.19
2023-02-16T09:11:06.828Z,102053.56
2023-02-16T09:13:35.715Z,102056.56
2023-02-16T09:16:05.294Z,102054.63
2023-02-16T09:18:33.727Z,102060.66
2023-02-16T09:21:06.946Z,102058.75
2023-02-16T09:23:35.786Z,102070.09
2023-02-16T09:26:07.086Z,102070.00
2023-02-16T09:28:35.908Z,102072.94
2023-02-16T09:31:10.573Z,102060.22
2023-02-16T09:33:38.660Z,102058.75
2023-02-16T09:36:09.204Z,102063.31
2023-02-16T09:38:37.276Z,102063.50
2023-02-16T09:41:10.601Z,102064.06
2023-02-16T09:43:46.636Z,102070.88
2023-02-16T09:46:17.112Z,102064.94
2023-02-16T09:48:47.284Z,102072.47
2023-02-16T09:51:20.914Z,102073.94
2023-02-16T09:53:55.779Z,102077.59
2023-02-16T09:56:28.584Z,102074.09
2023-02-16T09:58:59.375Z,102079.03
2023-02-16T10:01:32.553Z,102081.72
2023-02-16T10:04:11.984Z,102082.25
2023-02-16T10:06:58.383Z,102085.78
2023-02-16T10:09:28.075Z,102082.13
2023-02-16T10:11:59.169Z,102084.38
2023-02-16T10:14:33.599Z,102077.69
2023-02-16T10:17:08.347Z,102075.00
2023-02-16T10:19:40.746Z,102088.31
2023-02-16T10:22:17.360Z,102084.91
2023-02-16T10:24:49.897Z,102079.38
2023-02-16T10:27:17.867Z,102082.94
2023-02-16T10:29:45.806Z,102086.25
2023-02-16T10:32:17.791Z,102085.09
2023-02-16T10:34:50.139Z,102076.75
2023-02-16T10:37:28.755Z,102083.91
2023-02-16T10:40:05.988Z,102086.28
2023-02-16T10:42:41.904Z,102080.78
2023-02-16T10:45:21.060Z,102086.91
2023-02-16T10:47:49.639Z,102080.53
2023-02-16T10:50:23.279Z,102084.03
2023-02-16T10:52:54.166Z,102081.44
2023-02-16T10:55:22.180Z,102085.16
2023-02-16T10:57:56.813Z,102085.94
2023-02-16T11:00:30.734Z,102084.03
2023-02-16T11:02:58.704Z,102068.88
2023-02-16T11:05:32.785Z,102071.78
2023-02-16T11:08:02.892Z,102081.50
2023-02-16T11:10:40.184Z,102069.63
2023-02-16T11:13:09.107Z,102073.09
2023-02-16T11:15:38.603Z,102069.34
2023-02-16T11:18:10.115Z,102069.28
2023-02-16T11:20:56.113Z,102073.81
2023-02-16T11:23:26.853Z,102067.28
2023-02-16T11:26:00.549Z,102063.50
2023-02-16T11:28:32.691Z,102064.22
2023-02-16T11:31:03.991Z,102065.88
2023-02-16T11:33:32.727Z,102067.69
2023-02-16T11:36:02.437Z,102058.56
2023-02-16T11:38:33.611Z,102058.81
2023-02-16T11:41:03.746Z,102064.22
2023-02-16T11:43:34.728Z,102058.16
2023-02-16T11:46:05.379Z,102055.16
2023-02-16T11:48:34.849Z,102053.44
2023-02-16T11:51:05.710Z,102060.53
2023-02-16T11:53:36.548Z,102058.81
2023-02-16T11:56:15.312Z,102062.34
2023-02-16T11:58:43.236Z,102064.28
2023-02-16T12:01:20.320Z,102058.16
2023-02-16T12:04:12.897Z,102062.34
2023-02-16T12:06:53.173Z,102071.31
2023-02-16T12:09:31.102Z,102060.53
2023-02-16T12:12:04.708Z,102068.16
2023-02-16T12:14:48.499Z,102066.84
2023-02-16T12:17:27.874Z,102063.69
2023-02-16T12:20:03.456Z,102065.81
2023-02-16T12:22:41.537Z,102074.84
2023-02-16T12:25:25.601Z,102078.84
2023-02-16T12:27:56.971Z,102064.94
2023-02-16T12:30:34.318Z,102056.69
2023-02-16T12:33:11.168Z,102059.22
2023-02-16T12:35:51.791Z,102058.44
2023-02-16T12:38:30.246Z,102047.41
2023-02-16T12:41:07.580Z,102046.97
2023-02-16T12:43:39.174Z,102040.03
2023-02-16T12:46:14.668Z,102045.31
2023-02-16T12:48:48.160Z,102044.59
2023-02-16T12:51:20.351Z,102046.09
2023-02-16T12:53:53.701Z,102048.78
2023-02-16T12:56:26.239Z,102041.69
2023-02-16T12:59:02.484Z,102050.88
2023-02-16T13:01:32.352Z,102058.19
2023-02-16T13:04:04.982Z,102060.78
2023-02-16T13:06:37.502Z,102064.44
2023-02-16T13:09:12.681Z,102056.09
2023-02-16T13:11:47.017Z,102065.59
2023-02-16T13:14:19.016Z,102056.63
2023-02-16T13:16:49.637Z,102057.91
2023-02-16T13:19:17.656Z,102054.34
2023-02-16T13:22:21.605Z,102060.03
2023-02-16T13:24:59.209Z,102064.53
2023-02-16T13:27:37.063Z,102068.66
2023-02-16T13:30:24.638Z,102073.00
2023-02-16T13:33:11.133Z,102072.19
2023-02-16T13:36:12.280Z,102069.59
2023-02-16T13:39:23.865Z,102068.81
2023-02-16T13:42:25.536Z,102079.59
2023-02-16T13:44:56.173Z,102083.22
2023-02-16T13:47:27.933Z,102076.03
2023-02-16T13:49:58.552Z,102081.31
2023-02-16T13:52:32.255Z,102074.97
2023-02-16T13:55:01.460Z,102078.72
2023-02-16T13:58:04.581Z,102077.94
2023-02-16T14:00:37.097Z,102082.19
2023-02-16T14:03:12.071Z,102075.91
2023-02-16T14:05:42.687Z,102081.09
2023-02-16T14:08:24.745Z,102080.09
2023-02-16T14:11:11.409Z,102077.34
2023-02-16T14:13:50.912Z,102071.09
2023-02-16T14:16:34.273Z,102069.25
2023-02-16T14:19:05.997Z,102072.56
2023-02-16T14:21:38.437Z,102071.69
2023-02-16T14:24:08.636Z,102075.16
2023-02-16T14:26:55.251Z,102070.91
2023-02-16T14:29:25.541Z,102069.88
2023-02-16T14:32:00.459Z,102070.91
2023-02-16T14:34:30.400Z,102071.09
2023-02-16T14:37:27.956Z,102068.13
2023-02-16T14:40:07.735Z,102061.78
2023-02-16T14:42:37.256Z,102059.97
2023-02-16T14:45:31.615Z,102063.06
2023-02-16T14:48:08.509Z,102067.53
2023-02-16T14:50:47.223Z,102081.19
2023-02-16T14:53:45.602Z,102081.19
2023-02-16T14:56:40.416Z,102082.66
2023-02-16T14:59:14.570Z,102085.19
2023-02-16T15:01:43.605Z,102086.22
2023-02-16T15:04:13.287Z,102073.84
2023-02-16T15:06:43.885Z,102088.97
2023-02-16T15:09:17.228Z,102085.50
2023-02-16T15:12:08.035Z,102081.09
2023-02-16T15:14:39.684Z,102087.84
2023-02-16T15:17:08.135Z,102103.88
2023-02-16T15:19:39.691Z,102094.34
2023-02-16T15:22:20.713Z,102103.47
2023-02-16T15:24:59.886Z,102107.91
2023-02-16T15:27:29.803Z,102111.19
2023-02-16T15:30:10.382Z,102120.06
2023-02-16T15:32:38.412Z,102126.66
2023-02-16T15:35:23.789Z,102126.91
2023-02-16T15:38:01.191Z,102136.91
2023-02-16T15:40:32.952Z,102134.19
2023-02-16T15:43:09.840Z,102155.91
2023-02-16T15:45:39.531Z,102163.13
2023-02-16T15:48:23.503Z,102166.78
2023-02-16T15:50:53.575Z,102166.22
2023-02-16T15:53:28.893Z,102171.38
2023-02-16T15:55:56.947Z,102174.16
2023-02-16T15:58:24.949Z,102167.19
2023-02-16T16:00:54.790Z,102163.63
2023-02-16T16:03:23.600Z,102171.84
2023-02-16T16:05:59.819Z,102169.06
2023-02-16T16:08:29.196Z,102171.28
2023-02-16T16:10:57.763Z,102186.38
2023-02-16T16:13:26.956Z,102190.97
2023-02-16T16:15:59.836Z,102198.16
2023-02-16T16:18:45.796Z,102196.16
2023-02-16T16:21:19.614Z,102197.22
2023-02-16T16:24:02.435Z,102198.72
2023-02-16T16:26:33.502Z,102205.53
2023-02-16T16:29:01.970Z,102204.34
2023-02-16T16:31:36.905Z,102213.31
2023-02-16T16:34:07.113Z,102215.66
2023-02-16T16:36:37.888Z,102218.06
2023-02-16T16:39:27.976Z,102220.63
2023-02-16T16:42:18.370Z,102223.38
2023-02-16T16:44:54.999Z,102223.38
2023-02-16T16:47:26.278Z,102217.97
2023-02-16T16:49:56.361Z,102220.66
2023-02-16T16:52:45.304Z,102222.56
2023-02-16T16:55:32.601Z,102232.47
2023-02-16T16:58:03.407Z,102237.88
2023-02-16T17:00:34.636Z,102231.69
2023-02-16T17:03:03.171Z,102233.44
2023-02-16T17:05:31.215Z,102223.59
2023-02-16T17:08:00.501Z,102222.00
2023-02-16T17:10:29.546Z,102222.19
2023-02-16T17:12:59.850Z,102224.78
2023-02-16T17:15:35.276Z,102232.63
2023-02-16T17:18:03.394Z,102235.56
2023-02-16T17:20:31.412Z,102249.19
2023-02-16T17:23:04.757Z,102246.25
2023-02-16T17:25:36.220Z,102241.47
2023-02-16T17:28:04.939Z,102244.91
2023-02-16T17:30:33.504Z,102256.38
2023-02-16T17:33:01.469Z,102245.09
2023-02-16T17:35:29.547Z,102244.81
2023-02-16T17:37:57.504Z,102249.50
2023-02-16T17:40:27.544Z,102253.88
2023-02-16T17:42:55.850Z,102253.03
2023-02-16T17:45:26.005Z,102259.69
2023-02-16T17:47:54.132Z,102254.00
2023-02-16T17:50:22.410Z,102260.97
2023-02-16T17:52:50.364Z,102252.34
2023-02-16T17:55:18.501Z,102261.13
2023-02-16T17:57:47.781Z,102259.59
2023-02-16T18:00:19.131Z,102263.97
2023-02-16T18:02:47.671Z,102263.75
2023-02-16T18:05:15.648Z,102259.53
2023-02-16T18:07:43.557Z,102252.78
2023-02-16T18:10:17.957Z,102263.09
2023-02-16T18:12:47.260Z,102270.16
2023-02-16T18:15:15.286Z,102265.06
2023-02-16T18:17:43.188Z,102266.97
2023-02-16T18:20:15.860Z,102268.56
2023-02-16T18:22:43.777Z,102277.94
2023-02-16T18:25:11.828Z,102271.03
2023-02-16T18:27:39.725Z,102273.78
2023-02-16T18:30:10.296Z,102276.34
2023-02-16T18:32:38.399Z,102282.38
2023-02-16T18:35:06.943Z,102271.84
2023-02-16T18:37:34.873Z,102266.31
2023-02-16T18:40:03.533Z,102279.84
2023-02-16T18:42:31.434Z,102271.47
2023-02-16T18:44:59.403Z,102278.16
2023-02-16T18:47:28.950Z,102277.00
2023-02-16T18:49:57.216Z,102278.91
2023-02-16T18:52:25.239Z,102274.97
2023-02-16T18:54:53.174Z,102267.34
2023-02-16T18:57:22.667Z,102275.03
2023-02-16T18:59:50.691Z,102276.06
2023-02-16T19:02:19.079Z,102277.09
2023-02-16T19:04:48.597Z,102265.19
2023-02-16T19:07:16.519Z,102262.41
2023-02-16T19:09:44.430Z,102259.66
2023-02-16T19:12:12.345Z,102264.91
2023-02-16T19:14:40.282Z,102257.03
2023-02-16T19:17:08.165Z,102258.63
2023-02-16T19:19:36.843Z,102270.28
2023-02-16T19:22:06.154Z,102273.19
2023-02-16T19:24:34.967Z,102276.63
2023-02-16T19:27:02.991Z,102276.56
2023-02-16T19:29:30.965Z,102278.44
2023-02-16T19:31:58.958Z,102279.16
2023-02-16T19:34:27.044Z,102273.00
2023-02-16T19:36:55.056Z,102280.09
2023-02-16T19:39:24.364Z,102274.56
2023-02-16T19:41:52.254Z,102275.81
2023-02-16T19:44:23.199Z,102281.94
2023-02-16T19:46:51.115Z,102270.44
2023-02-16T19:49:19.297Z,102279.91
2023-02-16T19:51:47.750Z,102274.66
2023-02-16T19:54:15.882Z,102269.41
2023-02-16T19:56:45.192Z,102265.78
2023-02-16T19:59:13.112Z,102259.28
2023-02-16T20:01:41.182Z,102267.13
2023-02-16T20:04:10.170Z,102268.94
2023-02-16T20:06:41.733Z,102264.44
2023-02-16T20:09:12.148Z,102268.00
2023-02-16T20:11:40.682Z,102268.00
2023-02-16T20:14:09.980Z,102268.16
2023-02-16T20:16:37.969Z,102267.44
2023-02-16T20:19:05.926Z,102266.25
2023-02-16T20:21:34.532Z,102262.69
2023-02-16T20:24:04.725Z,102253.66
2023-02-16T20:26:34.613Z,102261.81
2023-02-16T20:29:03.576Z,102252.84
2023-02-16T20:31:36.381Z,102250.00
2023-02-16T20:34:05.256Z,102248.09
2023-02-16T20:36:33.407Z,102242.47
2023-02-16T20:39:01.338Z,102238.06
2023-02-16T20:41:29.311Z,102231.94
2023-02-16T20:43:57.296Z,102233.53
2023-02-16T20:46:26.211Z,102230.13
2023-02-16T20:48:55.609Z,102221.66
2023-02-16T20:51:23.936Z,102227.13
2023-02-16T20:53:51.910Z,102220.75
2023-02-16T20:56:22.813Z,102216.41
2023-02-16T20:58:52.512Z,102215.22
2023-02-16T21:01:23.114Z,102213.31
2023-02-16T21:03:51.837Z,102214.19
2023-02-16T21:06:21.551Z,102208.16
2023-02-16T21:08:49.746Z,102201.34
2023-02-16T21:11:18.160Z,102204.28
2023-02-16T21:13:46.335Z,102210.56
2023-02-16T21:16:15.106Z,102208.41
2023-02-16T21:18:45.719Z,102202.22
2023-02-16T21:21:15.767Z,102205.06
2023-02-16T21:23:46.785Z,102209.78
2023-02-16T21:26:14.921Z,102206.69
2023-02-16T21:28:42.878Z,102205.00
2023-02-16T21:31:14.403Z,102199.44
2023-02-16T21:33:42.607Z,102201.28
2023-02-16T21:36:12.513Z,102194.22
2023-02-16T21:38:41.288Z,102202.13
2023-02-16T21:41:25.749Z,102206.59
2023-02-16T21:43:55.347Z,102204.53
2023-02-16T21:46:23.358Z,102204.78
2023-02-16T21:48:50.442Z,102208.00
2023-02-16T21:51:19.937Z,102201.56
2023-02-16T21:53:48.209Z,102200.78
2023-02-16T21:56:24.552Z,102191.91
2023-02-16T21:58:52.476Z,102186.38
2023-02-16T22:01:25.316Z,102187.06
2023-02-16T22:03:56.319Z,102185.41
2023-02-16T22:06:25.433Z,102180.41
2023-02-16T22:08:53.573Z,102177.16
2023-02-16T22:11:22.885Z,102176.84
2023-02-16T22:13:54.546Z,102174.31
2023-02-16T22:16:22.550Z,102174.31
2023-02-16T22:18:50.756Z,102180.63
2023-02-16T22:21:19.912Z,102180.41
2023-02-16T22:23:47.859Z,102181.19
2023-02-16T22:26:24.966Z,102172.47
2023-02-16T22:28:53.384Z,102176.75
2023-02-16T22:31:22.979Z,102175.97
2023-02-16T22:33:56.093Z,102174.13
2023-02-16T22:36:24.019Z,102169.38
2023-02-16T22:38:53.994Z,102163.50
2023-02-16T22:41:24.392Z,102162.41
2023-02-16T22:43:53.495Z,102157.38
2023-02-16T22:46:21.486Z,102165.53
2023-02-16T22:48:49.472Z,102161.59
2023-02-16T22:51:18.071Z,102163.56
2023-02-16T22:53:46.365Z,102157.44
2023-02-16T22:56:16.106Z,102152.00
2023-02-16T22:58:45.425Z,102153.97
2023-02-16T23:01:15.071Z,102149.63
2023-02-16T23:03:43.519Z,102151.31
2023-02-16T23:06:15.601Z,102148.09
2023-02-16T23:08:44.199Z,102140.31
2023-02-16T23:11:12.871Z,102143.03
2023-02-16T23:13:41.011Z,102141.50
2023-02-16T23:16:12.893Z,102150.69
2023-02-16T23:18:41.019Z,102149.34
2023-02-16T23:21:10.005Z,102154.19
2023-02-16T23:23:38.167Z,102152.03
2023-02-16T23:26:07.740Z,102150.53
2023-02-16T23:28:36.298Z,102145.50
2023-02-16T23:31:04.529Z,102145.84
2023-02-16T23:33:34.206Z,102139.75
2023-02-16T23:36:02.186Z,102142.44
2023-02-16T23:38:30.326Z,102148.75
2023-02-16T23:40:59.250Z,102139.94
2023-02-16T23:43:27.434Z,102133.16
2023-02-16T23:45:55.664Z,102139.66
2023-02-16T23:48:24.385Z,102129.31
2023-02-16T23:50:54.104Z,102133.19
2023-02-16T23:53:23.172Z,102138.47
2023-02-16T23:55:58.359Z,102132.22
2023-02-16T23:58:27.576Z,102124.97
